sensor_id;sensor_type;location;lat;lon;timestamp;pressure;altitude;pressure_sealevel;temperature
71463;BMP180;59266;52.608;13.260;2024-03-02T00:00:10;100214.00;;;6.80
71463;BMP180;59266;52.608;13.260;2024-03-02T00:02:47;100214.00;;;6.70
71463;BMP180;59266;52.608;13.260;2024-03-02T00:05:18;100211.00;;;6.80
71463;BMP180;59266;52.608;13.260;2024-03-02T00:07:51;100207.00;;;6.90
71463;BMP180;59266;52.608;13.260;2024-03-02T00:10:25;100216.00;;;6.90
71463;BMP180;59266;52.608;13.260;2024-03-02T00:12:56;100212.00;;;7.00
71463;BMP180;59266;52.608;13.260;2024-03-02T00:15:46;100207.00;;;6.90
71463;BMP180;59266;52.608;13.260;2024-03-02T00:18:24;100211.00;;;6.90
71463;BMP180;59266;52.608;13.260;2024-03-02T00:24:44;100201.00;;;7.00
71463;BMP180;59266;52.608;13.260;2024-03-02T00:27:14;100193.00;;;7.00
71463;BMP180;59266;52.608;13.260;2024-03-02T00:29:42;100202.00;;;7.10
71463;BMP180;59266;52.608;13.260;2024-03-02T00:32:13;100210.00;;;7.10
71463;BMP180;59266;52.608;13.260;2024-03-02T00:34:42;100205.00;;;7.00
71463;BMP180;59266;52.608;13.260;2024-03-02T00:37:09;100205.00;;;7.00
71463;BMP180;59266;52.608;13.260;2024-03-02T00:39:35;100194.00;;;7.00
71463;BMP180;59266;52.608;13.260;2024-03-02T00:42:02;100196.00;;;7.10
71463;BMP180;59266;52.608;13.260;2024-03-02T00:44:29;100197.00;;;7.00
71463;BMP180;59266;52.608;13.260;2024-03-02T00:47:00;100200.00;;;7.10
71463;BMP180;59266;52.608;13.260;2024-03-02T00:49:27;100185.00;;;7.10
71463;BMP180;59266;52.608;13.260;2024-03-02T00:51:54;100196.00;;;7.20
71463;BMP180;59266;52.608;13.260;2024-03-02T00:54:30;100190.00;;;7.20
71463;BMP180;59266;52.608;13.260;2024-03-02T00:56:57;100191.00;;;7.20
71463;BMP180;59266;52.608;13.260;2024-03-02T00:59:24;100185.00;;;7.30
71463;BMP180;59266;52.608;13.260;2024-03-02T01:01:51;100186.00;;;7.30
71463;BMP180;59266;52.608;13.260;2024-03-02T01:04:18;100188.00;;;7.30
71463;BMP180;59266;52.608;13.260;2024-03-02T01:06:45;100194.00;;;7.30
71463;BMP180;59266;52.608;13.260;2024-03-02T01:09:12;100194.00;;;7.30
71463;BMP180;59266;52.608;13.260;2024-03-02T01:11:40;100186.00;;;7.30
71463;BMP180;59266;52.608;13.260;2024-03-02T01:14:06;100188.00;;;7.40
71463;BMP180;59266;52.608;13.260;2024-03-02T01:16:33;100183.00;;;7.40
71463;BMP180;59266;52.608;13.260;2024-03-02T01:18:59;100186.00;;;7.40
71463;BMP180;59266;52.608;13.260;2024-03-02T01:21:33;100192.00;;;7.50
71463;BMP180;59266;52.608;13.260;2024-03-02T01:23:59;100181.00;;;7.50
71463;BMP180;59266;52.608;13.260;2024-03-02T01:26:26;100188.00;;;7.50
71463;BMP180;59266;52.608;13.260;2024-03-02T01:28:52;100184.00;;;7.50
71463;BMP180;59266;52.608;13.260;2024-03-02T01:31:19;100170.00;;;7.50
71463;BMP180;59266;52.608;13.260;2024-03-02T01:33:46;100178.00;;;7.50
71463;BMP180;59266;52.608;13.260;2024-03-02T01:36:13;100173.00;;;7.50
71463;BMP180;59266;52.608;13.260;2024-03-02T01:38:40;100171.00;;;7.50
71463;BMP180;59266;52.608;13.260;2024-03-02T01:41:06;100171.00;;;7.60
71463;BMP180;59266;52.608;13.260;2024-03-02T01:43:33;100167.00;;;7.50
71463;BMP180;59266;52.608;13.260;2024-03-02T01:46:01;100156.00;;;7.60
71463;BMP180;59266;52.608;13.260;2024-03-02T01:48:28;100162.00;;;7.60
71463;BMP180;59266;52.608;13.260;2024-03-02T01:50:54;100164.00;;;7.50
71463;BMP180;59266;52.608;13.260;2024-03-02T01:53:21;100149.00;;;7.60
71463;BMP180;59266;52.608;13.260;2024-03-02T01:55:48;100144.00;;;7.40
71463;BMP180;59266;52.608;13.260;2024-03-02T01:58:15;100146.00;;;7.40
71463;BMP180;59266;52.608;13.260;2024-03-02T02:00:41;100151.00;;;7.30
71463;BMP180;59266;52.608;13.260;2024-03-02T02:03:08;100151.00;;;7.30
71463;BMP180;59266;52.608;13.260;2024-03-02T02:05:35;100146.00;;;7.40
71463;BMP180;59266;52.608;13.260;2024-03-02T02:08:01;100145.00;;;7.30
71463;BMP180;59266;52.608;13.260;2024-03-02T02:10:28;100139.00;;;7.40
71463;BMP180;59266;52.608;13.260;2024-03-02T02:12:55;100124.00;;;7.40
71463;BMP180;59266;52.608;13.260;2024-03-02T02:15:29;100124.00;;;7.40
71463;BMP180;59266;52.608;13.260;2024-03-02T02:17:57;100131.00;;;7.40
71463;BMP180;59266;52.608;13.260;2024-03-02T02:23:09;100122.00;;;7.50
71463;BMP180;59266;52.608;13.260;2024-03-02T02:25:36;100121.00;;;7.50
71463;BMP180;59266;52.608;13.260;2024-03-02T02:28:03;100117.00;;;7.40
71463;BMP180;59266;52.608;13.260;2024-03-02T02:30:31;100112.00;;;7.40
71463;BMP180;59266;52.608;13.260;2024-03-02T02:32:58;100116.00;;;7.40
71463;BMP180;59266;52.608;13.260;2024-03-02T02:35:25;100109.00;;;7.40
71463;BMP180;59266;52.608;13.260;2024-03-02T02:37:54;100120.00;;;7.30
71463;BMP180;59266;52.608;13.260;2024-03-02T02:40:21;100121.00;;;7.20
71463;BMP180;59266;52.608;13.260;2024-03-02T02:42:48;100112.00;;;7.30
71463;BMP180;59266;52.608;13.260;2024-03-02T02:45:15;100111.00;;;7.30
71463;BMP180;59266;52.608;13.260;2024-03-02T02:47:42;100117.00;;;7.30
71463;BMP180;59266;52.608;13.260;2024-03-02T02:50:11;100120.00;;;7.40
71463;BMP180;59266;52.608;13.260;2024-03-02T02:52:40;100116.00;;;7.30
71463;BMP180;59266;52.608;13.260;2024-03-02T02:55:09;100120.00;;;7.40
71463;BMP180;59266;52.608;13.260;2024-03-02T02:57:36;100125.00;;;7.50
71463;BMP180;59266;52.608;13.260;2024-03-02T03:00:07;100122.00;;;7.50
71463;BMP180;59266;52.608;13.260;2024-03-02T03:02:37;100131.00;;;7.50
71463;BMP180;59266;52.608;13.260;2024-03-02T03:05:05;100127.00;;;7.50
71463;BMP180;59266;52.608;13.260;2024-03-02T03:07:32;100115.00;;;7.50
71463;BMP180;59266;52.608;13.260;2024-03-02T03:10:00;100129.00;;;7.50
71463;BMP180;59266;52.608;13.260;2024-03-02T03:12:27;100127.00;;;7.50
71463;BMP180;59266;52.608;13.260;2024-03-02T03:14:54;100125.00;;;7.50
71463;BMP180;59266;52.608;13.260;2024-03-02T03:17:21;100120.00;;;7.50
71463;BMP180;59266;52.608;13.260;2024-03-02T03:19:49;100124.00;;;7.60
71463;BMP180;59266;52.608;13.260;2024-03-02T03:22:16;100125.00;;;7.70
71463;BMP180;59266;52.608;13.260;2024-03-02T03:24:43;100120.00;;;7.70
71463;BMP180;59266;52.608;13.260;2024-03-02T03:27:10;100121.00;;;7.70
71463;BMP180;59266;52.608;13.260;2024-03-02T03:29:38;100125.00;;;7.80
71463;BMP180;59266;52.608;13.260;2024-03-02T03:32:04;100125.00;;;7.80
71463;BMP180;59266;52.608;13.260;2024-03-02T03:34:33;100129.00;;;7.90
71463;BMP180;59266;52.608;13.260;2024-03-02T03:36:59;100127.00;;;7.80
71463;BMP180;59266;52.608;13.260;2024-03-02T03:39:26;100130.00;;;7.90
71463;BMP180;59266;52.608;13.260;2024-03-02T03:41:53;100132.00;;;7.90
71463;BMP180;59266;52.608;13.260;2024-03-02T03:44:20;100131.00;;;7.90
71463;BMP180;59266;52.608;13.260;2024-03-02T03:46:47;100134.00;;;7.90
71463;BMP180;59266;52.608;13.260;2024-03-02T03:49:13;100122.00;;;7.90
71463;BMP180;59266;52.608;13.260;2024-03-02T03:51:40;100133.00;;;8.00
71463;BMP180;59266;52.608;13.260;2024-03-02T03:54:06;100127.00;;;8.00
71463;BMP180;59266;52.608;13.260;2024-03-02T03:56:33;100124.00;;;8.00
71463;BMP180;59266;52.608;13.260;2024-03-02T03:58:59;100120.00;;;8.00
71463;BMP180;59266;52.608;13.260;2024-03-02T04:01:26;100115.00;;;8.00
71463;BMP180;59266;52.608;13.260;2024-03-02T04:03:52;100109.00;;;8.00
71463;BMP180;59266;52.608;13.260;2024-03-02T04:06:19;100123.00;;;8.00
71463;BMP180;59266;52.608;13.260;2024-03-02T04:08:46;100131.00;;;7.90
71463;BMP180;59266;52.608;13.260;2024-03-02T04:11:13;100131.00;;;7.90
71463;BMP180;59266;52.608;13.260;2024-03-02T04:13:39;100123.00;;;8.00
71463;BMP180;59266;52.608;13.260;2024-03-02T04:16:06;100134.00;;;8.10
71463;BMP180;59266;52.608;13.260;2024-03-02T04:18:32;100136.00;;;8.10
71463;BMP180;59266;52.608;13.260;2024-03-02T04:20:59;100140.00;;;8.10
71463;BMP180;59266;52.608;13.260;2024-03-02T04:23:26;100146.00;;;8.10
71463;BMP180;59266;52.608;13.260;2024-03-02T04:25:53;100148.00;;;8.10
71463;BMP180;59266;52.608;13.260;2024-03-02T04:28:19;100147.00;;;8.10
71463;BMP180;59266;52.608;13.260;2024-03-02T04:30:46;100148.00;;;8.20
71463;BMP180;59266;52.608;13.260;2024-03-02T04:33:12;100140.00;;;8.20
71463;BMP180;59266;52.608;13.260;2024-03-02T04:35:39;100148.00;;;8.20
71463;BMP180;59266;52.608;13.260;2024-03-02T04:38:05;100151.00;;;8.20
71463;BMP180;59266;52.608;13.260;2024-03-02T04:40:32;100145.00;;;8.20
71463;BMP180;59266;52.608;13.260;2024-03-02T04:42:59;100149.00;;;8.20
71463;BMP180;59266;52.608;13.260;2024-03-02T04:45:25;100145.00;;;8.20
71463;BMP180;59266;52.608;13.260;2024-03-02T04:47:52;100151.00;;;8.20
71463;BMP180;59266;52.608;13.260;2024-03-02T04:50:27;100150.00;;;8.20
71463;BMP180;59266;52.608;13.260;2024-03-02T04:52:54;100147.00;;;8.20
71463;BMP180;59266;52.608;13.260;2024-03-02T04:55:20;100155.00;;;8.20
71463;BMP180;59266;52.608;13.260;2024-03-02T04:58:12;100160.00;;;8.30
71463;BMP180;59266;52.608;13.260;2024-03-02T05:00:39;100153.00;;;8.30
71463;BMP180;59266;52.608;13.260;2024-03-02T05:03:06;100160.00;;;8.30
71463;BMP180;59266;52.608;13.260;2024-03-02T05:05:32;100163.00;;;8.30
71463;BMP180;59266;52.608;13.260;2024-03-02T05:07:59;100163.00;;;8.20
71463;BMP180;59266;52.608;13.260;2024-03-02T05:10:25;100163.00;;;8.20
71463;BMP180;59266;52.608;13.260;2024-03-02T05:12:52;100163.00;;;8.30
71463;BMP180;59266;52.608;13.260;2024-03-02T05:15:27;100167.00;;;8.20
71463;BMP180;59266;52.608;13.260;2024-03-02T05:17:54;100163.00;;;8.30
71463;BMP180;59266;52.608;13.260;2024-03-02T05:20:21;100176.00;;;8.30
71463;BMP180;59266;52.608;13.260;2024-03-02T05:22:51;100176.00;;;8.30
71463;BMP180;59266;52.608;13.260;2024-03-02T05:25:18;100171.00;;;8.30
71463;BMP180;59266;52.608;13.260;2024-03-02T05:27:45;100176.00;;;8.30
71463;BMP180;59266;52.608;13.260;2024-03-02T05:30:13;100190.00;;;8.20
71463;BMP180;59266;52.608;13.260;2024-03-02T05:32:40;100197.00;;;8.30
71463;BMP180;59266;52.608;13.260;2024-03-02T05:35:07;100186.00;;;8.30
71463;BMP180;59266;52.608;13.260;2024-03-02T05:37:34;100189.00;;;8.30
71463;BMP180;59266;52.608;13.260;2024-03-02T05:40:01;100188.00;;;8.50
71463;BMP180;59266;52.608;13.260;2024-03-02T05:42:28;100197.00;;;8.50
71463;BMP180;59266;52.608;13.260;2024-03-02T05:44:55;100199.00;;;8.50
71463;BMP180;59266;52.608;13.260;2024-03-02T05:47:21;100194.00;;;8.60
71463;BMP180;59266;52.608;13.260;2024-03-02T05:49:48;100196.00;;;8.60
71463;BMP180;59266;52.608;13.260;2024-03-02T05:52:14;100203.00;;;8.60
71463;BMP180;59266;52.608;13.260;2024-03-02T05:54:41;100211.00;;;8.60
71463;BMP180;59266;52.608;13.260;2024-03-02T05:57:08;100208.00;;;8.60
71463;BMP180;59266;52.608;13.260;2024-03-02T05:59:53;100214.00;;;8.70
71463;BMP180;59266;52.608;13.260;2024-03-02T06:02:20;100218.00;;;8.60
71463;BMP180;59266;52.608;13.260;2024-03-02T06:04:47;100217.00;;;8.70
71463;BMP180;59266;52.608;13.260;2024-03-02T06:07:13;100234.00;;;8.80
71463;BMP180;59266;52.608;13.260;2024-03-02T06:09:41;100228.00;;;8.80
71463;BMP180;59266;52.608;13.260;2024-03-02T06:12:07;100230.00;;;8.90
71463;BMP180;59266;52.608;13.260;2024-03-02T06:14:34;100228.00;;;8.90
71463;BMP180;59266;52.608;13.260;2024-03-02T06:17:00;100231.00;;;8.80
71463;BMP180;59266;52.608;13.260;2024-03-02T06:19:27;100235.00;;;8.70
71463;BMP180;59266;52.608;13.260;2024-03-02T06:21:57;100233.00;;;8.80
71463;BMP180;59266;52.608;13.260;2024-03-02T06:24:24;100224.00;;;8.80
71463;BMP180;59266;52.608;13.260;2024-03-02T06:26:52;100237.00;;;8.90
71463;BMP180;59266;52.608;13.260;2024-03-02T06:29:19;100220.00;;;9.00
71463;BMP180;59266;52.608;13.260;2024-03-02T06:31:46;100221.00;;;9.00
71463;BMP180;59266;52.608;13.260;2024-03-02T06:34:12;100228.00;;;9.00
71463;BMP180;59266;52.608;13.260;2024-03-02T06:36:39;100212.00;;;9.00
71463;BMP180;59266;52.608;13.260;2024-03-02T06:39:06;100214.00;;;9.10
71463;BMP180;59266;52.608;13.260;2024-03-02T06:41:33;100225.00;;;9.10
71463;BMP180;59266;52.608;13.260;2024-03-02T06:44:00;100214.00;;;9.20
71463;BMP180;59266;52.608;13.260;2024-03-02T06:46:27;100210.00;;;9.20
71463;BMP180;59266;52.608;13.260;2024-03-02T06:48:53;100212.00;;;9.40
71463;BMP180;59266;52.608;13.260;2024-03-02T06:51:20;100215.00;;;9.50
71463;BMP180;59266;52.608;13.260;2024-03-02T06:53:47;100213.00;;;9.60
71463;BMP180;59266;52.608;13.260;2024-03-02T06:56:13;100219.00;;;9.60
71463;BMP180;59266;52.608;13.260;2024-03-02T06:58:40;100219.00;;;9.70
71463;BMP180;59266;52.608;13.260;2024-03-02T07:01:06;100225.00;;;9.60
71463;BMP180;59266;52.608;13.260;2024-03-02T07:03:33;100228.00;;;9.50
71463;BMP180;59266;52.608;13.260;2024-03-02T07:06:00;100237.00;;;9.40
71463;BMP180;59266;52.608;13.260;2024-03-02T07:08:26;100238.00;;;9.40
71463;BMP180;59266;52.608;13.260;2024-03-02T07:10:53;100239.00;;;9.40
71463;BMP180;59266;52.608;13.260;2024-03-02T07:13:20;100239.00;;;9.30
71463;BMP180;59266;52.608;13.260;2024-03-02T07:15:47;100241.00;;;9.30
71463;BMP180;59266;52.608;13.260;2024-03-02T07:18:33;100239.00;;;9.40
71463;BMP180;59266;52.608;13.260;2024-03-02T07:21:01;100239.00;;;9.50
71463;BMP180;59266;52.608;13.260;2024-03-02T07:23:28;100240.00;;;9.50
71463;BMP180;59266;52.608;13.260;2024-03-02T07:25:54;100238.00;;;9.70
71463;BMP180;59266;52.608;13.260;2024-03-02T07:28:26;100245.00;;;9.70
71463;BMP180;59266;52.608;13.260;2024-03-02T07:31:03;100246.00;;;9.80
71463;BMP180;59266;52.608;13.260;2024-03-02T07:33:31;100246.00;;;9.70
71463;BMP180;59266;52.608;13.260;2024-03-02T07:35:59;100253.00;;;9.70
71463;BMP180;59266;52.608;13.260;2024-03-02T07:38:30;100257.00;;;9.70
71463;BMP180;59266;52.608;13.260;2024-03-02T07:40:57;100262.00;;;9.90
71463;BMP180;59266;52.608;13.260;2024-03-02T07:43:24;100267.00;;;9.70
71463;BMP180;59266;52.608;13.260;2024-03-02T07:45:51;100269.00;;;9.70
71463;BMP180;59266;52.608;13.260;2024-03-02T07:48:17;100275.00;;;9.60
71463;BMP180;59266;52.608;13.260;2024-03-02T07:50:56;100282.00;;;9.70
71463;BMP180;59266;52.608;13.260;2024-03-02T07:53:23;100281.00;;;9.60
71463;BMP180;59266;52.608;13.260;2024-03-02T07:55:50;100288.00;;;9.60
71463;BMP180;59266;52.608;13.260;2024-03-02T07:58:16;100286.00;;;9.60
71463;BMP180;59266;52.608;13.260;2024-03-02T08:00:46;100288.00;;;9.50
71463;BMP180;59266;52.608;13.260;2024-03-02T08:03:13;100292.00;;;9.70
71463;BMP180;59266;52.608;13.260;2024-03-02T08:05:40;100300.00;;;9.70
71463;BMP180;59266;52.608;13.260;2024-03-02T08:08:07;100295.00;;;9.70
71463;BMP180;59266;52.608;13.260;2024-03-02T08:10:33;100293.00;;;9.70
71463;BMP180;59266;52.608;13.260;2024-03-02T08:13:00;100294.00;;;9.80
71463;BMP180;59266;52.608;13.260;2024-03-02T08:15:26;100296.00;;;9.90
71463;BMP180;59266;52.608;13.260;2024-03-02T08:17:53;100297.00;;;9.80
71463;BMP180;59266;52.608;13.260;2024-03-02T08:20:23;100303.00;;;9.90
71463;BMP180;59266;52.608;13.260;2024-03-02T08:22:50;100305.00;;;10.00
71463;BMP180;59266;52.608;13.260;2024-03-02T08:25:17;100304.00;;;10.10
71463;BMP180;59266;52.608;13.260;2024-03-02T08:27:43;100304.00;;;10.00
71463;BMP180;59266;52.608;13.260;2024-03-02T08:30:10;100307.00;;;10.00
71463;BMP180;59266;52.608;13.260;2024-03-02T08:32:37;100311.00;;;10.00
71463;BMP180;59266;52.608;13.260;2024-03-02T08:35:04;100312.00;;;10.10
71463;BMP180;59266;52.608;13.260;2024-03-02T08:37:31;100307.00;;;9.90
71463;BMP180;59266;52.608;13.260;2024-03-02T08:39:57;100315.00;;;10.10
71463;BMP180;59266;52.608;13.260;2024-03-02T08:42:24;100324.00;;;10.10
71463;BMP180;59266;52.608;13.260;2024-03-02T08:44:51;100326.00;;;10.00
71463;BMP180;59266;52.608;13.260;2024-03-02T08:47:17;100325.00;;;10.10
71463;BMP180;59266;52.608;13.260;2024-03-02T08:49:44;100325.00;;;10.00
71463;BMP180;59266;52.608;13.260;2024-03-02T08:52:11;100333.00;;;9.90
71463;BMP180;59266;52.608;13.260;2024-03-02T08:54:37;100321.00;;;10.00
71463;BMP180;59266;52.608;13.260;2024-03-02T08:57:05;100330.00;;;10.10
71463;BMP180;59266;52.608;13.260;2024-03-02T08:59:32;100335.00;;;10.20
71463;BMP180;59266;52.608;13.260;2024-03-02T09:01:59;100335.00;;;10.40
71463;BMP180;59266;52.608;13.260;2024-03-02T09:04:25;100335.00;;;10.40
71463;BMP180;59266;52.608;13.260;2024-03-02T09:06:54;100335.00;;;10.40
71463;BMP180;59266;52.608;13.260;2024-03-02T09:09:21;100344.00;;;10.60
71463;BMP180;59266;52.608;13.260;2024-03-02T09:11:47;100342.00;;;10.70
71463;BMP180;59266;52.608;13.260;2024-03-02T09:14:15;100350.00;;;10.50
71463;BMP180;59266;52.608;13.260;2024-03-02T09:16:42;100354.00;;;10.50
71463;BMP180;59266;52.608;13.260;2024-03-02T09:19:09;100352.00;;;10.40
71463;BMP180;59266;52.608;13.260;2024-03-02T09:21:36;100351.00;;;10.20
71463;BMP180;59266;52.608;13.260;2024-03-02T09:24:03;100358.00;;;10.30
71463;BMP180;59266;52.608;13.260;2024-03-02T09:26:30;100347.00;;;10.40
71463;BMP180;59266;52.608;13.260;2024-03-02T09:28:56;100359.00;;;10.40
71463;BMP180;59266;52.608;13.260;2024-03-02T09:31:23;100352.00;;;10.60
71463;BMP180;59266;52.608;13.260;2024-03-02T09:33:50;100356.00;;;10.50
71463;BMP180;59266;52.608;13.260;2024-03-02T09:36:17;100368.00;;;10.40
71463;BMP180;59266;52.608;13.260;2024-03-02T09:38:45;100359.00;;;10.30
71463;BMP180;59266;52.608;13.260;2024-03-02T09:41:11;100362.00;;;10.30
71463;BMP180;59266;52.608;13.260;2024-03-02T09:43:39;100361.00;;;10.30
71463;BMP180;59266;52.608;13.260;2024-03-02T09:46:09;100363.00;;;10.50
71463;BMP180;59266;52.608;13.260;2024-03-02T09:48:35;100363.00;;;10.40
71463;BMP180;59266;52.608;13.260;2024-03-02T09:51:04;100354.00;;;10.60
71463;BMP180;59266;52.608;13.260;2024-03-02T09:53:32;100356.00;;;10.80
71463;BMP180;59266;52.608;13.260;2024-03-02T09:56:01;100345.00;;;10.80
71463;BMP180;59266;52.608;13.260;2024-03-02T09:58:28;100346.00;;;10.90
71463;BMP180;59266;52.608;13.260;2024-03-02T10:00:55;100343.00;;;11.20
71463;BMP180;59266;52.608;13.260;2024-03-02T10:03:23;100341.00;;;11.30
71463;BMP180;59266;52.608;13.260;2024-03-02T10:05:51;100342.00;;;11.40
71463;BMP180;59266;52.608;13.260;2024-03-02T10:08:18;100351.00;;;11.50
71463;BMP180;59266;52.608;13.260;2024-03-02T10:10:45;100344.00;;;11.60
71463;BMP180;59266;52.608;13.260;2024-03-02T10:13:13;100341.00;;;11.50
71463;BMP180;59266;52.608;13.260;2024-03-02T10:15:40;100352.00;;;11.60
71463;BMP180;59266;52.608;13.260;2024-03-02T10:18:11;100338.00;;;11.90
71463;BMP180;59266;52.608;13.260;2024-03-02T10:23:42;100347.00;;;12.10
71463;BMP180;59266;52.608;13.260;2024-03-02T10:26:18;100338.00;;;11.80
71463;BMP180;59266;52.608;13.260;2024-03-02T10:28:48;100345.00;;;12.10
71463;BMP180;59266;52.608;13.260;2024-03-02T10:31:15;100353.00;;;12.10
71463;BMP180;59266;52.608;13.260;2024-03-02T10:33:42;100344.00;;;12.20
71463;BMP180;59266;52.608;13.260;2024-03-02T10:36:08;100341.00;;;12.30
71463;BMP180;59266;52.608;13.260;2024-03-02T10:38:35;100343.00;;;12.90
71463;BMP180;59266;52.608;13.260;2024-03-02T10:41:02;100341.00;;;13.40
71463;BMP180;59266;52.608;13.260;2024-03-02T10:43:30;100333.00;;;13.70
71463;BMP180;59266;52.608;13.260;2024-03-02T10:45:57;100326.00;;;14.40
71463;BMP180;59266;52.608;13.260;2024-03-02T10:48:25;100335.00;;;14.50
71463;BMP180;59266;52.608;13.260;2024-03-02T10:50:53;100342.00;;;14.50
71463;BMP180;59266;52.608;13.260;2024-03-02T10:53:20;100324.00;;;14.80
71463;BMP180;59266;52.608;13.260;2024-03-02T10:55:50;100342.00;;;15.40
71463;BMP180;59266;52.608;13.260;2024-03-02T10:58:22;100323.00;;;17.50
71463;BMP180;59266;52.608;13.260;2024-03-02T11:00:50;100338.00;;;19.60
71463;BMP180;59266;52.608;13.260;2024-03-02T11:03:18;100340.00;;;18.50
71463;BMP180;59266;52.608;13.260;2024-03-02T11:05:46;100339.00;;;18.10
71463;BMP180;59266;52.608;13.260;2024-03-02T11:08:17;100346.00;;;18.40
71463;BMP180;59266;52.608;13.260;2024-03-02T11:10:50;100349.00;;;18.10
71463;BMP180;59266;52.608;13.260;2024-03-02T11:13:22;100348.00;;;18.30
71463;BMP180;59266;52.608;13.260;2024-03-02T11:15:54;100339.00;;;17.40
71463;BMP180;59266;52.608;13.260;2024-03-02T11:18:21;100351.00;;;16.60
71463;BMP180;59266;52.608;13.260;2024-03-02T11:20:48;100346.00;;;16.20
71463;BMP180;59266;52.608;13.260;2024-03-02T11:23:15;100347.00;;;15.80
71463;BMP180;59266;52.608;13.260;2024-03-02T11:25:41;100342.00;;;15.70
71463;BMP180;59266;52.608;13.260;2024-03-02T11:28:08;100340.00;;;15.20
71463;BMP180;59266;52.608;13.260;2024-03-02T11:33:06;100357.00;;;15.50
71463;BMP180;59266;52.608;13.260;2024-03-02T11:35:35;100345.00;;;15.40
71463;BMP180;59266;52.608;13.260;2024-03-02T11:38:01;100344.00;;;15.40
71463;BMP180;59266;52.608;13.260;2024-03-02T11:40:30;100342.00;;;14.70
71463;BMP180;59266;52.608;13.260;2024-03-02T11:42:59;100344.00;;;14.90
71463;BMP180;59266;52.608;13.260;2024-03-02T11:45:27;100340.00;;;14.50
71463;BMP180;59266;52.608;13.260;2024-03-02T11:47:55;100342.00;;;14.20
71463;BMP180;59266;52.608;13.260;2024-03-02T11:50:40;100343.00;;;14.10
71463;BMP180;59266;52.608;13.260;2024-03-02T11:53:09;100339.00;;;14.60
71463;BMP180;59266;52.608;13.260;2024-03-02T11:55:37;100347.00;;;14.70
71463;BMP180;59266;52.608;13.260;2024-03-02T11:58:04;100342.00;;;14.80
71463;BMP180;59266;52.608;13.260;2024-03-02T12:00:31;100348.00;;;15.10
71463;BMP180;59266;52.608;13.260;2024-03-02T12:03:05;100345.00;;;14.90
71463;BMP180;59266;52.608;13.260;2024-03-02T12:05:33;100342.00;;;14.40
71463;BMP180;59266;52.608;13.260;2024-03-02T12:08:01;100342.00;;;14.20
71463;BMP180;59266;52.608;13.260;2024-03-02T12:10:29;100354.00;;;14.70
71463;BMP180;59266;52.608;13.260;2024-03-02T12:13:04;100355.00;;;15.30
71463;BMP180;59266;52.608;13.260;2024-03-02T12:15:33;100351.00;;;15.00
71463;BMP180;59266;52.608;13.260;2024-03-02T12:18:01;100356.00;;;15.00
71463;BMP180;59266;52.608;13.260;2024-03-02T12:20:29;100342.00;;;14.80
71463;BMP180;59266;52.608;13.260;2024-03-02T12:22:59;100349.00;;;15.00
71463;BMP180;59266;52.608;13.260;2024-03-02T12:25:26;100344.00;;;15.10
71463;BMP180;59266;52.608;13.260;2024-03-02T12:27:55;100342.00;;;15.10
71463;BMP180;59266;52.608;13.260;2024-03-02T12:30:22;100333.00;;;15.30
71463;BMP180;59266;52.608;13.260;2024-03-02T12:32:50;100335.00;;;16.00
71463;BMP180;59266;52.608;13.260;2024-03-02T12:35:17;100331.00;;;15.80
71463;BMP180;59266;52.608;13.260;2024-03-02T12:37:48;100308.00;;;16.40
71463;BMP180;59266;52.608;13.260;2024-03-02T12:40:17;100320.00;;;16.50
71463;BMP180;59266;52.608;13.260;2024-03-02T12:42:48;100317.00;;;17.00
71463;BMP180;59266;52.608;13.260;2024-03-02T12:45:15;100315.00;;;16.90
71463;BMP180;59266;52.608;13.260;2024-03-02T12:47:42;100315.00;;;16.60
71463;BMP180;59266;52.608;13.260;2024-03-02T12:50:09;100316.00;;;16.70
71463;BMP180;59266;52.608;13.260;2024-03-02T12:52:36;100321.00;;;16.80
71463;BMP180;59266;52.608;13.260;2024-03-02T12:55:04;100325.00;;;17.20
71463;BMP180;59266;52.608;13.260;2024-03-02T12:57:32;100317.00;;;16.90
71463;BMP180;59266;52.608;13.260;2024-03-02T13:00:00;100325.00;;;16.70
71463;BMP180;59266;52.608;13.260;2024-03-02T13:02:28;100325.00;;;17.00
71463;BMP180;59266;52.608;13.260;2024-03-02T13:04:56;100319.00;;;16.90
71463;BMP180;59266;52.608;13.260;2024-03-02T13:07:26;100326.00;;;16.70
71463;BMP180;59266;52.608;13.260;2024-03-02T13:09:53;100335.00;;;17.00
71463;BMP180;59266;52.608;13.260;2024-03-02T13:12:24;100334.00;;;16.40
71463;BMP180;59266;52.608;13.260;2024-03-02T13:14:54;100325.00;;;17.00
71463;BMP180;59266;52.608;13.260;2024-03-02T13:17:20;100304.00;;;17.00
71463;BMP180;59266;52.608;13.260;2024-03-02T13:19:51;100312.00;;;16.90
71463;BMP180;59266;52.608;13.260;2024-03-02T13:22:19;100307.00;;;16.70
71463;BMP180;59266;52.608;13.260;2024-03-02T13:24:46;100312.00;;;16.60
71463;BMP180;59266;52.608;13.260;2024-03-02T13:27:13;100309.00;;;17.20
71463;BMP180;59266;52.608;13.260;2024-03-02T14:16:47;100303.00;;;17.80
71463;BMP180;59266;52.608;13.260;2024-03-02T14:19:14;100302.00;;;17.70
71463;BMP180;59266;52.608;13.260;2024-03-02T14:21:41;100308.00;;;17.00
71463;BMP180;59266;52.608;13.260;2024-03-02T14:24:07;100318.00;;;16.70
71463;BMP180;59266;52.608;13.260;2024-03-02T14:33:07;100311.00;;;17.00
71463;BMP180;59266;52.608;13.260;2024-03-02T14:35:34;100317.00;;;16.70
71463;BMP180;59266;52.608;13.260;2024-03-02T14:38:00;100314.00;;;16.10
71463;BMP180;59266;52.608;13.260;2024-03-02T14:40:27;100318.00;;;16.10
71463;BMP180;59266;52.608;13.260;2024-03-02T14:42:55;100305.00;;;15.60
71463;BMP180;59266;52.608;13.260;2024-03-02T14:45:22;100311.00;;;15.70
71463;BMP180;59266;52.608;13.260;2024-03-02T14:47:52;100307.00;;;15.80
71463;BMP180;59266;52.608;13.260;2024-03-02T14:50:18;100308.00;;;16.00
71463;BMP180;59266;52.608;13.260;2024-03-02T14:52:45;100311.00;;;15.90
71463;BMP180;59266;52.608;13.260;2024-03-02T14:55:14;100302.00;;;16.10
71463;BMP180;59266;52.608;13.260;2024-03-02T14:57:41;100298.00;;;15.90
71463;BMP180;59266;52.608;13.260;2024-03-02T15:00:08;100305.00;;;16.00